createdAt,value
2022-10-25T00:01:06.073Z,11.18
2022-10-25T00:03:32.659Z,11.22
2022-10-25T00:05:59.228Z,11.19
2022-10-25T00:08:25.803Z,11.20
2022-10-25T00:10:52.374Z,11.20
2022-10-25T00:13:19.002Z,11.23
2022-10-25T00:15:45.578Z,11.21
2022-10-25T00:18:12.154Z,11.22
2022-10-25T00:20:38.726Z,11.23
2022-10-25T00:23:05.288Z,11.23
2022-10-25T00:25:31.906Z,11.25
2022-10-25T00:27:58.547Z,11.26
2022-10-25T00:30:25.174Z,11.26
2022-10-25T00:32:52.868Z,11.27
2022-10-25T00:35:19.482Z,11.29
2022-10-25T00:37:46.157Z,11.30
2022-10-25T00:40:13.068Z,11.29
2022-10-25T00:42:39.631Z,11.33
2022-10-25T00:45:27.819Z,11.36
2022-10-25T00:48:03.486Z,11.38
2022-10-25T00:50:49.546Z,11.37
2022-10-25T00:53:20.542Z,11.38
2022-10-25T00:55:51.897Z,11.38
2022-10-25T00:58:22.346Z,11.46
2022-10-25T01:00:49.292Z,11.44
2022-10-25T01:03:18.106Z,11.48
2022-10-25T01:05:45.169Z,11.51
2022-10-25T01:08:12.783Z,11.59
2022-10-25T01:10:39.933Z,11.55
2022-10-25T01:13:06.741Z,11.57
2022-10-25T01:15:46.854Z,11.53
2022-10-25T01:18:22.743Z,11.52
2022-10-25T01:21:21.623Z,11.49
2022-10-25T01:24:16.937Z,11.51
2022-10-25T01:27:11.070Z,11.49
2022-10-25T01:29:40.568Z,11.47
2022-10-25T01:32:32.231Z,11.49
2022-10-25T01:35:17.340Z,11.53
2022-10-25T01:37:56.057Z,11.56
2022-10-25T01:40:32.916Z,11.63
2022-10-25T01:43:30.800Z,11.66
2022-10-25T01:46:12.677Z,11.65
2022-10-25T01:48:45.640Z,11.63
2022-10-25T01:51:16.302Z,11.60
2022-10-25T01:53:51.387Z,11.58
2022-10-25T01:56:38.275Z,11.56
2022-10-25T01:59:24.330Z,11.53
2022-10-25T02:02:05.855Z,11.53
2022-10-25T02:04:50.440Z,11.49
2022-10-25T02:07:36.968Z,11.44
2022-10-25T02:10:22.461Z,11.40
2022-10-25T02:13:01.301Z,11.36
2022-10-25T02:15:37.940Z,11.36
2022-10-25T02:18:12.122Z,11.33
2022-10-25T02:20:44.494Z,11.35
2022-10-25T02:23:15.283Z,11.38
2022-10-25T02:25:43.435Z,11.43
2022-10-25T02:28:12.717Z,11.48
2022-10-25T02:30:42.351Z,11.47
2022-10-25T02:33:09.749Z,11.54
2022-10-25T02:35:36.924Z,11.50
2022-10-25T02:38:04.207Z,11.53
2022-10-25T02:40:31.029Z,11.49
2022-10-25T02:42:57.591Z,11.46
2022-10-25T02:45:24.248Z,11.44
2022-10-25T02:47:50.826Z,11.45
2022-10-25T02:50:17.533Z,11.44
2022-10-25T02:52:44.349Z,11.43
2022-10-25T02:55:11.304Z,11.42
2022-10-25T02:57:38.383Z,11.41
2022-10-25T03:00:07.221Z,11.41
2022-10-25T03:02:33.970Z,11.37
2022-10-25T03:05:00.562Z,11.37
2022-10-25T03:07:27.195Z,11.48
2022-10-25T03:09:53.746Z,11.44
2022-10-25T03:12:20.304Z,11.42
2022-10-25T03:14:46.897Z,11.39
2022-10-25T03:17:13.463Z,11.38
2022-10-25T03:19:40.022Z,11.58
2022-10-25T03:22:06.606Z,11.55
2022-10-25T03:24:33.153Z,11.45
2022-10-25T03:27:00.383Z,11.40
2022-10-25T03:29:27.018Z,11.43
2022-10-25T03:31:53.579Z,11.39
2022-10-25T03:34:20.162Z,11.35
2022-10-25T03:36:46.719Z,11.33
2022-10-25T03:39:13.311Z,11.37
2022-10-25T03:41:39.874Z,11.37
2022-10-25T03:44:06.438Z,11.34
2022-10-25T03:46:33.023Z,11.34
2022-10-25T03:48:59.603Z,11.32
2022-10-25T03:51:26.218Z,11.46
2022-10-25T03:53:52.854Z,11.39
2022-10-25T03:56:19.419Z,11.35
2022-10-25T03:58:45.982Z,11.24
2022-10-25T04:01:13.111Z,11.24
2022-10-25T04:03:39.807Z,11.20
2022-10-25T04:06:06.982Z,11.20
2022-10-25T04:08:33.554Z,11.22
2022-10-25T04:11:00.190Z,11.22
2022-10-25T04:13:26.806Z,11.20
2022-10-25T04:15:53.376Z,11.18
2022-10-25T04:18:20.570Z,11.22
2022-10-25T04:20:47.307Z,11.28
2022-10-25T04:23:13.895Z,11.17
2022-10-25T04:25:40.537Z,11.12
2022-10-25T04:28:07.155Z,11.15
2022-10-25T04:30:36.573Z,11.12
2022-10-25T04:33:05.498Z,11.11
2022-10-25T04:35:32.153Z,11.13
2022-10-25T04:37:59.151Z,11.11
2022-10-25T04:40:25.909Z,11.09
2022-10-25T04:42:52.536Z,11.12
2022-10-25T04:45:19.254Z,11.18
2022-10-25T04:47:45.945Z,11.13
2022-10-25T04:50:12.777Z,11.07
2022-10-25T04:52:39.361Z,11.06
2022-10-25T04:55:06.104Z,11.08
2022-10-25T04:57:32.659Z,11.01
2022-10-25T04:59:59.351Z,11.02
2022-10-25T05:02:26.021Z,11.01
2022-10-25T05:04:52.974Z,11.00
2022-10-25T05:07:20.341Z,11.02
2022-10-25T05:09:47.706Z,11.01
2022-10-25T05:12:15.014Z,10.99
2022-10-25T05:14:41.574Z,10.92
2022-10-25T05:17:08.153Z,10.92
2022-10-25T05:19:34.749Z,10.91
2022-10-25T05:22:01.418Z,10.93
2022-10-25T05:24:28.076Z,10.95
2022-10-25T05:26:54.886Z,10.95
2022-10-25T05:29:21.558Z,11.00
2022-10-25T05:31:48.142Z,10.99
2022-10-25T05:34:14.697Z,10.96
2022-10-25T05:36:41.329Z,10.94
2022-10-25T05:39:07.935Z,10.94
2022-10-25T05:41:37.011Z,10.95
2022-10-25T05:44:05.497Z,10.95
2022-10-25T05:46:32.182Z,10.90
2022-10-25T05:48:59.945Z,10.99
2022-10-25T05:51:34.210Z,11.17
2022-10-25T05:54:07.371Z,11.25
2022-10-25T05:56:35.685Z,11.29
2022-10-25T05:59:08.778Z,11.31
2022-10-25T06:01:40.863Z,11.13
2022-10-25T06:04:08.523Z,11.05
2022-10-25T06:06:36.828Z,11.07
2022-10-25T06:09:03.782Z,11.11
2022-10-25T06:11:32.153Z,11.12
2022-10-25T06:13:59.028Z,11.13
2022-10-25T06:16:25.785Z,11.13
2022-10-25T06:18:53.841Z,11.18
2022-10-25T06:21:23.027Z,11.20
2022-10-25T06:23:50.337Z,11.23
2022-10-25T06:26:23.090Z,11.24
2022-10-25T06:28:51.908Z,11.25
2022-10-25T06:31:19.523Z,11.27
2022-10-25T06:33:46.778Z,11.33
2022-10-25T06:36:16.752Z,11.37
2022-10-25T06:38:45.058Z,11.36
2022-10-25T06:41:14.185Z,11.36
2022-10-25T06:43:40.906Z,11.35
2022-10-25T06:46:19.826Z,11.37
2022-10-25T06:48:46.520Z,11.46
2022-10-25T06:51:13.117Z,11.55
2022-10-25T06:53:40.704Z,11.75
2022-10-25T06:56:14.230Z,11.98
2022-10-25T06:58:41.814Z,12.16
2022-10-25T07:01:13.167Z,12.28
2022-10-25T07:03:40.410Z,12.31
2022-10-25T07:06:12.294Z,12.48
2022-10-25T07:08:41.102Z,12.65
2022-10-25T07:11:12.674Z,12.77
2022-10-25T07:13:39.249Z,12.95
2022-10-25T07:16:07.877Z,13.05
2022-10-25T07:18:35.849Z,13.35
2022-10-25T07:21:13.836Z,13.39
2022-10-25T07:23:44.031Z,13.36
2022-10-25T07:26:22.017Z,13.14
2022-10-25T07:28:50.571Z,13.20
2022-10-25T07:31:20.279Z,13.28
2022-10-25T07:33:47.791Z,13.38
2022-10-25T07:36:14.378Z,13.55
2022-10-25T07:38:41.114Z,13.68
2022-10-25T07:41:09.354Z,13.75
2022-10-25T07:43:36.260Z,13.77
2022-10-25T07:46:03.097Z,13.75
2022-10-25T07:48:29.918Z,13.86
2022-10-25T07:50:56.541Z,13.97
2022-10-25T07:53:23.124Z,14.29
2022-10-25T07:55:51.963Z,15.50
2022-10-25T07:58:19.114Z,15.20
2022-10-25T08:00:45.798Z,15.16
2022-10-25T08:03:13.843Z,14.96
2022-10-25T08:05:40.999Z,14.78
2022-10-25T08:08:07.626Z,14.72
2022-10-25T08:10:34.198Z,14.66
2022-10-25T08:13:00.792Z,14.80
2022-10-25T08:15:27.448Z,14.87
2022-10-25T08:18:00.058Z,14.98
2022-10-25T08:20:49.256Z,15.08
2022-10-25T08:23:13.337Z,15.19
2022-10-25T08:25:39.991Z,15.09
2022-10-25T08:28:06.808Z,14.96
2022-10-25T08:30:33.396Z,14.86
2022-10-25T08:32:59.984Z,14.80
2022-10-25T08:35:26.760Z,14.73
2022-10-25T08:37:53.364Z,14.98
2022-10-25T08:40:24.022Z,15.11
2022-10-25T08:43:00.546Z,14.86
2022-10-25T08:45:43.821Z,15.12
2022-10-25T08:48:17.907Z,14.96
2022-10-25T08:50:53.650Z,14.89
2022-10-25T08:53:25.257Z,15.05
2022-10-25T08:56:15.586Z,15.37
2022-10-25T08:58:47.882Z,16.90
2022-10-25T09:01:19.029Z,19.25
2022-10-25T09:03:45.816Z,21.55
2022-10-25T09:06:24.670Z,23.19
2022-10-25T09:09:12.131Z,24.32
2022-10-25T09:11:45.113Z,25.47
2022-10-25T09:14:36.422Z,25.02
2022-10-25T09:17:22.699Z,25.61
2022-10-25T09:20:18.714Z,26.50
2022-10-25T09:22:54.410Z,26.36
2022-10-25T09:25:52.394Z,27.66
2022-10-25T09:28:29.315Z,26.76
2022-10-25T09:31:00.117Z,27.19
2022-10-25T09:33:30.582Z,27.51
2022-10-25T09:35:59.378Z,28.03
2022-10-25T09:38:52.020Z,28.22
2022-10-25T09:41:32.294Z,27.23
2022-10-25T09:44:04.402Z,27.22
2022-10-25T09:46:45.133Z,27.83
2022-10-25T09:49:49.514Z,27.54
2022-10-25T09:52:40.248Z,25.82
2022-10-25T09:55:32.499Z,27.15
2022-10-25T09:58:00.031Z,27.64
2022-10-25T10:00:27.031Z,27.11
2022-10-25T10:02:54.645Z,27.25
2022-10-25T10:05:22.443Z,27.83
2022-10-25T10:07:50.663Z,26.74
2022-10-25T10:10:27.884Z,27.13
2022-10-25T10:13:12.674Z,27.51
2022-10-25T10:15:50.215Z,27.23
2022-10-25T10:18:24.504Z,27.44
2022-10-25T10:21:06.090Z,28.00
2022-10-25T10:23:37.706Z,27.36
2022-10-25T10:26:19.279Z,27.35
2022-10-25T10:28:48.447Z,26.33
2022-10-25T10:31:16.438Z,27.36
2022-10-25T10:33:49.541Z,27.16
2022-10-25T10:36:28.095Z,27.58
2022-10-25T10:39:13.326Z,27.98
2022-10-25T10:41:58.289Z,27.99
2022-10-25T10:44:24.874Z,28.84
2022-10-25T10:46:51.587Z,29.28
2022-10-25T10:49:18.789Z,29.74
2022-10-25T10:51:46.140Z,29.69
2022-10-25T10:54:13.953Z,29.95
2022-10-25T10:56:40.633Z,29.69
2022-10-25T10:59:26.331Z,30.35
2022-10-25T11:01:53.091Z,31.25
2022-10-25T11:04:21.874Z,31.41
2022-10-25T11:06:49.655Z,31.23
2022-10-25T11:09:23.491Z,31.12
2022-10-25T11:12:10.812Z,31.88
2022-10-25T11:14:38.186Z,32.04
2022-10-25T11:17:20.653Z,32.08
2022-10-25T11:20:18.460Z,33.06
2022-10-25T11:22:58.883Z,31.54
2022-10-25T11:25:43.659Z,31.75
2022-10-25T11:28:41.962Z,31.68
2022-10-25T11:31:24.535Z,31.37
2022-10-25T11:34:21.639Z,30.31
2022-10-25T11:36:56.577Z,29.46
2022-10-25T11:39:37.158Z,29.49
2022-10-25T11:42:09.456Z,30.96
2022-10-25T11:44:36.059Z,31.49
2022-10-25T11:47:08.429Z,31.88
2022-10-25T11:49:56.878Z,31.47
2022-10-25T11:53:00.056Z,31.27
2022-10-25T11:55:29.222Z,32.82
2022-10-25T11:58:20.821Z,33.39
2022-10-25T12:01:07.077Z,34.37
2022-10-25T12:04:05.266Z,33.11
2022-10-25T12:07:13.109Z,33.36
2022-10-25T12:09:52.526Z,29.98
2022-10-25T12:12:24.155Z,30.46
2022-10-25T12:14:52.979Z,30.55
2022-10-25T12:17:25.800Z,29.09
2022-10-25T12:19:56.030Z,30.61
2022-10-25T12:22:40.048Z,31.04
2022-10-25T12:25:28.289Z,28.04
2022-10-25T12:28:03.806Z,26.98
2022-10-25T12:30:32.949Z,29.17
2022-10-25T12:33:21.242Z,31.72
2022-10-25T12:35:54.547Z,32.33
2022-10-25T12:38:31.247Z,31.99
2022-10-25T12:41:04.286Z,33.23
2022-10-25T12:44:17.670Z,33.42
2022-10-25T12:47:11.986Z,33.32
2022-10-25T12:49:51.525Z,33.59
2022-10-25T12:52:36.324Z,33.02
2022-10-25T12:55:20.641Z,33.13
2022-10-25T12:58:02.563Z,32.88
2022-10-25T13:00:40.993Z,33.24
2022-10-25T13:03:48.703Z,33.51
2022-10-25T13:06:30.319Z,33.20
2022-10-25T13:09:01.333Z,33.44
2022-10-25T13:12:00.016Z,33.62
2022-10-25T13:14:33.438Z,33.24
2022-10-25T13:17:18.259Z,32.50
2022-10-25T13:20:14.714Z,32.78
2022-10-25T13:22:42.808Z,33.22
2022-10-25T13:25:12.172Z,32.99
2022-10-25T13:27:40.840Z,32.73
2022-10-25T13:30:07.522Z,32.86
2022-10-25T13:32:38.719Z,31.71
2022-10-25T13:35:20.317Z,31.89
2022-10-25T13:38:07.613Z,32.82
2022-10-25T13:40:34.417Z,32.09
2022-10-25T13:43:01.068Z,32.09
2022-10-25T13:45:37.869Z,32.05
2022-10-25T13:48:25.542Z,31.99
2022-10-25T13:51:10.078Z,31.82
2022-10-25T13:53:40.886Z,31.16
2022-10-25T13:56:14.524Z,30.11
2022-10-25T13:58:55.421Z,30.71
2022-10-25T14:01:23.120Z,30.98
2022-10-25T14:04:03.527Z,30.26
2022-10-25T14:06:32.486Z,30.60
2022-10-25T14:09:32.698Z,30.86
2022-10-25T14:12:02.363Z,29.63
2022-10-25T14:14:43.952Z,30.09
2022-10-25T14:17:29.282Z,29.72
2022-10-25T14:20:02.254Z,30.12
2022-10-25T14:22:43.938Z,28.42
2022-10-25T14:25:35.440Z,26.27
2022-10-25T14:28:26.703Z,24.19
2022-10-25T14:30:56.734Z,24.76
2022-10-25T14:33:53.276Z,25.40
2022-10-25T14:36:32.971Z,24.23
2022-10-25T14:39:15.658Z,22.97
2022-10-25T14:41:50.580Z,22.17
2022-10-25T14:44:28.651Z,21.40
2022-10-25T14:46:57.160Z,20.49
2022-10-25T14:49:24.975Z,19.94
2022-10-25T14:51:57.999Z,19.56
2022-10-25T14:54:33.875Z,19.21
2022-10-25T14:57:06.556Z,18.91
2022-10-25T14:59:42.464Z,18.63
2022-10-25T15:02:24.466Z,18.43
2022-10-25T15:04:54.069Z,18.27
2022-10-25T15:07:43.369Z,18.12
2022-10-25T15:10:34.932Z,17.95
2022-10-25T15:13:21.517Z,17.85
2022-10-25T15:15:50.868Z,17.73
2022-10-25T15:18:26.535Z,17.60
2022-10-25T15:21:13.992Z,17.38
2022-10-25T15:23:42.990Z,17.20
2022-10-25T15:26:38.435Z,17.00
2022-10-25T15:29:06.195Z,16.83
2022-10-25T15:31:32.910Z,16.70
2022-10-25T15:34:02.131Z,16.49
2022-10-25T15:36:30.947Z,16.34
2022-10-25T15:39:09.374Z,16.16
2022-10-25T15:41:38.332Z,15.96
2022-10-25T15:44:04.938Z,15.82
2022-10-25T15:46:35.049Z,15.65
2022-10-25T15:49:07.610Z,15.67
2022-10-25T15:51:36.266Z,15.53
2022-10-25T15:54:02.978Z,15.41
2022-10-25T15:56:29.856Z,15.33
2022-10-25T15:58:58.632Z,15.23
2022-10-25T16:01:25.378Z,15.14
2022-10-25T16:03:52.011Z,15.03
2022-10-25T16:06:18.606Z,14.96
2022-10-25T16:08:45.804Z,14.87
2022-10-25T16:11:18.858Z,14.72
2022-10-25T16:13:47.895Z,14.66
2022-10-25T16:16:41.052Z,14.62
2022-10-25T16:19:19.550Z,14.52
2022-10-25T16:21:46.518Z,14.43
2022-10-25T16:24:14.167Z,14.32
2022-10-25T16:26:46.612Z,14.26
2022-10-25T16:29:18.258Z,14.22
2022-10-25T16:31:45.150Z,14.16
2022-10-25T16:34:12.230Z,14.02
2022-10-25T16:36:38.851Z,14.03
2022-10-25T16:39:06.366Z,13.97
2022-10-25T16:41:33.428Z,13.83
2022-10-25T16:44:00.187Z,13.78
2022-10-25T16:46:27.063Z,13.73
2022-10-25T16:48:55.848Z,13.69
2022-10-25T16:51:25.817Z,13.66
2022-10-25T16:53:52.394Z,13.61
2022-10-25T16:56:19.027Z,13.58
2022-10-25T16:58:45.591Z,13.46
2022-10-25T17:01:29.738Z,13.37
2022-10-25T17:03:56.475Z,13.38
2022-10-25T17:09:10.742Z,13.21
2022-10-25T17:11:37.617Z,13.08
2022-10-25T17:14:04.570Z,13.04
2022-10-25T17:16:31.169Z,13.05
2022-10-25T17:18:57.754Z,13.02
2022-10-25T17:21:24.385Z,13.01
2022-10-25T17:23:50.986Z,12.95
2022-10-25T17:26:17.763Z,12.88
2022-10-25T17:28:44.745Z,12.86
2022-10-25T17:31:14.024Z,12.85
2022-10-25T17:33:41.931Z,12.80
2022-10-25T17:36:17.421Z,12.76
2022-10-25T17:38:44.753Z,12.71
2022-10-25T17:41:13.351Z,12.69
2022-10-25T17:43:41.222Z,12.66
2022-10-25T17:46:20.015Z,12.63
2022-10-25T17:48:47.317Z,12.51
2022-10-25T17:51:14.750Z,12.50
2022-10-25T17:53:41.742Z,12.48
2022-10-25T17:56:12.866Z,12.40
2022-10-25T17:58:45.068Z,12.26
2022-10-25T18:01:13.739Z,12.20
2022-10-25T18:03:40.564Z,12.21
2022-10-25T18:06:09.911Z,12.18
2022-10-25T18:08:37.087Z,12.12
2022-10-25T18:11:23.273Z,12.10
2022-10-25T18:13:50.690Z,12.07
2022-10-25T18:16:18.333Z,12.04
2022-10-25T18:18:45.007Z,11.99
2022-10-25T18:21:14.139Z,12.00
2022-10-25T18:23:41.443Z,11.94
2022-10-25T18:26:10.942Z,11.88
2022-10-25T18:28:39.035Z,11.86
2022-10-25T18:31:08.510Z,11.81
2022-10-25T18:33:36.833Z,11.74
2022-10-25T18:36:10.349Z,11.69
2022-10-25T18:38:37.164Z,11.67
2022-10-25T18:41:14.401Z,11.62
2022-10-25T18:43:42.569Z,11.62
2022-10-25T18:46:09.731Z,11.60
2022-10-25T18:48:36.469Z,11.58
2022-10-25T18:51:09.713Z,11.55
2022-10-25T18:53:38.555Z,11.50
2022-10-25T18:56:14.141Z,11.53
2022-10-25T18:58:44.042Z,11.54
2022-10-25T19:01:20.826Z,11.47
2022-10-25T19:03:48.158Z,11.43
2022-10-25T19:06:14.910Z,11.38
2022-10-25T19:08:44.439Z,11.44
2022-10-25T19:11:13.430Z,11.35
2022-10-25T19:13:40.770Z,11.32
2022-10-25T19:16:08.908Z,11.27
2022-10-25T19:18:37.668Z,11.26
2022-10-25T19:21:07.085Z,11.24
2022-10-25T19:23:34.782Z,11.17
2022-10-25T19:26:03.563Z,11.10
2022-10-25T19:28:30.858Z,11.06
2022-10-25T19:30:57.615Z,11.04
2022-10-25T19:33:24.481Z,11.04
2022-10-25T19:35:51.109Z,10.98
2022-10-25T19:38:21.866Z,11.00
2022-10-25T19:40:48.794Z,10.91
2022-10-25T19:43:15.487Z,10.85
2022-10-25T19:45:43.162Z,10.85
2022-10-25T19:48:10.186Z,10.86
2022-10-25T19:50:38.155Z,10.82
2022-10-25T19:53:05.193Z,10.79
2022-10-25T19:55:32.201Z,10.79
2022-10-25T19:57:59.024Z,10.78
2022-10-25T20:00:25.729Z,10.78
2022-10-25T20:02:52.462Z,10.69
2022-10-25T20:05:19.427Z,10.71
2022-10-25T20:07:46.270Z,10.69
2022-10-25T20:10:13.606Z,10.61
2022-10-25T20:12:40.200Z,10.61
2022-10-25T20:15:07.544Z,10.63
2022-10-25T20:17:34.170Z,10.59
2022-10-25T20:20:00.844Z,10.63
2022-10-25T20:22:27.726Z,10.55
2022-10-25T20:24:54.893Z,10.53
2022-10-25T20:27:21.896Z,10.48
2022-10-25T20:29:48.486Z,10.48
2022-10-25T20:32:15.445Z,10.47
2022-10-25T20:34:42.090Z,10.50
2022-10-25T20:37:10.447Z,10.48
2022-10-25T20:39:37.127Z,10.44
2022-10-25T20:42:03.777Z,10.37
2022-10-25T20:44:30.351Z,10.36
2022-10-25T20:46:57.006Z,10.39
2022-10-25T20:49:24.115Z,10.37
2022-10-25T20:51:50.678Z,10.28
2022-10-25T20:54:17.277Z,10.25
2022-10-25T20:56:43.845Z,10.31
2022-10-25T20:59:10.434Z,10.26
2022-10-25T21:01:37.124Z,10.23
2022-10-25T21:04:12.626Z,10.28
2022-10-25T21:07:11.843Z,10.30
2022-10-25T21:09:38.570Z,10.24
2022-10-25T21:12:05.393Z,10.20
2022-10-25T21:14:31.980Z,10.22
2022-10-25T21:16:58.606Z,10.21
2022-10-25T21:19:25.186Z,10.15
2022-10-25T21:21:51.743Z,10.14
2022-10-25T21:24:18.321Z,10.12
2022-10-25T21:26:44.898Z,10.08
2022-10-25T21:29:11.486Z,10.06
2022-10-25T21:31:38.055Z,10.06
2022-10-25T21:34:04.859Z,10.05
2022-10-25T21:36:31.500Z,9.95
2022-10-25T21:38:58.170Z,9.89
2022-10-25T21:41:27.045Z,9.87
2022-10-25T21:43:55.063Z,9.80
2022-10-25T21:46:22.773Z,9.80
2022-10-25T21:48:52.999Z,9.75
2022-10-25T21:51:21.510Z,9.73
2022-10-25T21:53:48.446Z,9.71
2022-10-25T21:56:20.251Z,9.63
2022-10-25T21:58:47.873Z,9.62
2022-10-25T22:01:22.880Z,9.66
2022-10-25T22:03:49.757Z,9.59
2022-10-25T22:06:18.424Z,9.60
2022-10-25T22:08:45.759Z,9.61
2022-10-25T22:11:18.524Z,9.58
2022-10-25T22:13:45.762Z,9.55
2022-10-25T22:16:17.794Z,9.47
2022-10-25T22:18:50.119Z,9.44
2022-10-25T22:21:16.791Z,9.37
2022-10-25T22:23:43.395Z,9.33
2022-10-25T22:26:13.344Z,9.35
2022-10-25T22:28:41.465Z,9.36
2022-10-25T22:31:10.903Z,9.34
2022-10-25T22:33:38.042Z,9.29
2022-10-25T22:36:07.453Z,9.30
2022-10-25T22:38:34.719Z,9.21
2022-10-25T22:41:04.593Z,9.20
2022-10-25T22:43:31.282Z,9.15
2022-10-25T22:46:01.249Z,9.12
2022-10-25T22:48:36.757Z,9.08
2022-10-25T22:51:04.202Z,9.05
2022-10-25T22:53:31.241Z,9.05
2022-10-25T22:56:04.105Z,9.06
2022-10-25T22:58:34.094Z,9.04
2022-10-25T23:03:36.444Z,8.91
2022-10-25T23:06:05.590Z,8.92
2022-10-25T23:08:32.736Z,8.86
2022-10-25T23:11:05.683Z,8.83
2022-10-25T23:13:34.206Z,8.86
2022-10-25T23:16:02.176Z,8.94
2022-10-25T23:18:29.083Z,8.95
2022-10-25T23:20:57.937Z,8.86
2022-10-25T23:23:25.729Z,8.73
2022-10-25T23:25:53.018Z,8.62
2022-10-25T23:28:19.667Z,8.59
2022-10-25T23:30:46.280Z,8.63
2022-10-25T23:33:13.838Z,8.65
2022-10-25T23:35:41.546Z,8.51
2022-10-25T23:38:11.594Z,8.48
2022-10-25T23:40:38.497Z,8.51
2022-10-25T23:43:05.059Z,8.44
2022-10-25T23:45:32.233Z,8.34
2022-10-25T23:47:59.001Z,8.27
2022-10-25T23:50:25.562Z,8.24
2022-10-25T23:52:52.207Z,8.25
2022-10-25T23:55:18.897Z,8.24
2022-10-25T23:57:45.450Z,8.21
